createdAt,value
2019-05-20T00:01:54.051Z,3.90
2019-05-20T00:04:25.818Z,4.67
2019-05-20T00:06:57.301Z,3.70
2019-05-20T00:09:28.836Z,3.77
2019-05-20T00:12:01.152Z,4.67
2019-05-20T00:14:34.505Z,4.17
2019-05-20T00:17:07.062Z,4.90
2019-05-20T00:19:40.668Z,4.37
2019-05-20T00:22:13.206Z,8.67
2019-05-20T00:24:44.823Z,4.57
2019-05-20T00:27:16.407Z,4.77
2019-05-20T00:29:47.993Z,4.50
2019-05-20T00:32:20.155Z,4.47
2019-05-20T00:34:51.725Z,10.20
2019-05-20T00:37:23.644Z,5.30
2019-05-20T00:39:55.038Z,5.03
2019-05-20T00:42:26.881Z,5.67
2019-05-20T00:44:58.580Z,6.00
2019-05-20T00:47:31.193Z,4.70
2019-05-20T00:50:03.329Z,3.70
2019-05-20T00:52:34.956Z,4.67
2019-05-20T00:55:06.976Z,4.37
2019-05-20T00:57:39.537Z,4.17
2019-05-20T01:00:10.985Z,7.13
2019-05-20T01:02:55.985Z,4.73
2019-05-20T01:05:15.707Z,4.13
2019-05-20T01:07:49.617Z,4.57
2019-05-20T01:10:20.893Z,5.07
2019-05-20T01:12:52.175Z,4.43
2019-05-20T01:15:23.374Z,4.60
2019-05-20T01:17:55.886Z,4.97
2019-05-20T01:20:27.233Z,5.73
2019-05-20T01:22:58.503Z,4.60
2019-05-20T01:25:29.820Z,4.90
2019-05-20T01:28:01.051Z,5.80
2019-05-20T01:30:32.240Z,4.57
2019-05-20T01:33:13.445Z,4.90
2019-05-20T01:35:37.316Z,5.00
2019-05-20T01:38:08.643Z,5.67
2019-05-20T01:40:39.914Z,4.00
2019-05-20T01:43:11.132Z,6.77
2019-05-20T01:45:42.329Z,8.13
2019-05-20T01:48:13.601Z,6.87
2019-05-20T01:50:44.886Z,3.90
2019-05-20T01:53:16.148Z,4.97
2019-05-20T01:55:47.333Z,3.87
2019-05-20T01:58:18.572Z,9.73
2019-05-20T02:00:49.725Z,4.40
2019-05-20T02:03:30.920Z,4.57
2019-05-20T02:05:53.929Z,5.33
2019-05-20T02:08:25.147Z,10.83
2019-05-20T02:10:56.962Z,7.60
2019-05-20T02:13:47.062Z,8.87
2019-05-20T02:16:19.050Z,12.17
2019-05-20T02:18:50.258Z,15.03
2019-05-20T02:21:21.474Z,12.13
2019-05-20T02:23:52.682Z,12.03
2019-05-20T02:26:24.010Z,10.67
2019-05-20T02:28:55.335Z,10.03
2019-05-20T02:31:26.487Z,8.73
2019-05-20T02:33:57.704Z,10.03
2019-05-20T02:36:28.858Z,7.30
2019-05-20T02:39:00.066Z,8.37
2019-05-20T02:41:31.709Z,10.73
2019-05-20T02:44:02.908Z,11.60
2019-05-20T02:46:34.051Z,9.73
2019-05-20T02:49:05.237Z,10.33
2019-05-20T02:51:36.390Z,10.63
2019-05-20T02:54:07.561Z,11.13
2019-05-20T02:56:38.751Z,11.47
2019-05-20T02:59:09.939Z,10.60
2019-05-20T03:01:41.092Z,12.13
2019-05-20T03:04:13.132Z,11.33
2019-05-20T03:06:44.447Z,12.90
2019-05-20T03:09:15.614Z,11.13
2019-05-20T03:11:46.801Z,11.13
2019-05-20T03:14:17.956Z,10.93
2019-05-20T03:16:49.130Z,11.53
2019-05-20T03:19:20.318Z,10.57
2019-05-20T03:21:51.465Z,11.30
2019-05-20T03:24:22.637Z,14.30
2019-05-20T03:26:53.809Z,16.57
2019-05-20T03:29:24.989Z,25.93
2019-05-20T03:31:56.152Z,21.77
2019-05-20T03:34:45.037Z,23.50
2019-05-20T03:37:00.190Z,26.03
2019-05-20T03:39:31.688Z,26.93
2019-05-20T03:42:02.818Z,23.93
2019-05-20T03:44:34.059Z,29.50
2019-05-20T03:47:05.217Z,30.43
2019-05-20T03:49:36.430Z,27.37
2019-05-20T03:52:07.595Z,31.37
2019-05-20T03:54:38.890Z,24.80
2019-05-20T03:57:10.043Z,27.73
2019-05-20T03:59:41.240Z,24.33
2019-05-20T04:02:12.433Z,25.03
2019-05-20T04:05:00.815Z,29.63
2019-05-20T04:07:16.907Z,26.57
2019-05-20T04:09:48.110Z,25.20
2019-05-20T04:12:19.286Z,27.97
2019-05-20T04:14:50.513Z,31.47
2019-05-20T04:17:21.697Z,35.10
2019-05-20T04:19:54.007Z,35.60
2019-05-20T04:22:25.238Z,34.13
2019-05-20T04:24:56.567Z,36.67
2019-05-20T04:27:27.796Z,33.20
2019-05-20T04:29:59.011Z,36.37
2019-05-20T04:32:30.253Z,37.10
2019-05-20T04:35:19.819Z,33.37
2019-05-20T04:37:34.312Z,38.27
2019-05-20T04:40:05.955Z,41.50
2019-05-20T04:42:37.162Z,32.97
2019-05-20T04:45:08.338Z,41.50
2019-05-20T04:47:39.549Z,39.93
2019-05-20T04:50:10.726Z,44.03
2019-05-20T04:52:41.933Z,44.90
2019-05-20T04:55:13.105Z,42.17
2019-05-20T04:57:44.363Z,43.40
2019-05-20T05:00:15.612Z,44.07
2019-05-20T05:02:46.809Z,44.67
2019-05-20T05:05:17.974Z,45.70
2019-05-20T05:07:49.198Z,41.33
2019-05-20T05:10:20.347Z,43.07
2019-05-20T05:12:51.525Z,41.93
2019-05-20T05:15:22.700Z,46.53
2019-05-20T05:17:53.883Z,46.77
2019-05-20T05:20:25.027Z,43.67
2019-05-20T05:22:59.677Z,45.07
2019-05-20T05:25:31.858Z,48.37
2019-05-20T05:28:03.234Z,38.63
2019-05-20T05:30:34.636Z,41.70
2019-05-20T05:33:05.870Z,45.23
2019-05-20T05:35:51.981Z,42.50
2019-05-20T05:38:10.157Z,45.90
2019-05-20T05:40:41.287Z,44.53
2019-05-20T05:43:12.458Z,49.93
2019-05-20T05:45:43.624Z,47.00
2019-05-20T05:48:14.824Z,53.93
2019-05-20T05:50:45.999Z,49.27
2019-05-20T05:53:17.240Z,49.77
2019-05-20T05:55:48.434Z,54.73
2019-05-20T05:58:19.620Z,49.37
2019-05-20T06:00:50.796Z,50.17
2019-05-20T06:03:22.063Z,48.40
2019-05-20T06:06:10.286Z,49.10
2019-05-20T06:08:26.127Z,52.33
2019-05-20T06:10:57.305Z,48.60
2019-05-20T06:13:28.496Z,52.60
2019-05-20T06:15:59.665Z,47.97
2019-05-20T06:18:31.079Z,53.30
2019-05-20T06:21:02.274Z,46.03
2019-05-20T06:23:33.451Z,55.17
2019-05-20T06:26:04.622Z,50.00
2019-05-20T06:28:35.804Z,50.30
2019-05-20T06:31:06.987Z,54.53
2019-05-20T06:33:38.174Z,57.73
2019-05-20T06:36:09.351Z,47.07
2019-05-20T06:38:45.114Z,57.97
2019-05-20T06:41:16.273Z,48.43
2019-05-20T06:43:47.477Z,53.30
2019-05-20T06:46:18.645Z,48.27
2019-05-20T06:48:49.834Z,55.67
2019-05-20T06:51:21.010Z,55.70
2019-05-20T06:53:52.244Z,51.40
2019-05-20T06:56:23.434Z,53.80
2019-05-20T06:58:55.717Z,52.67
2019-05-20T07:01:26.948Z,56.43
2019-05-20T07:03:59.580Z,53.23
2019-05-20T07:06:44.633Z,51.83
2019-05-20T07:09:04.872Z,55.60
2019-05-20T07:11:36.107Z,52.20
2019-05-20T07:14:07.306Z,51.60
2019-05-20T07:16:38.542Z,52.63
2019-05-20T07:19:09.785Z,54.67
2019-05-20T07:21:40.950Z,53.10
2019-05-20T07:24:12.303Z,48.07
2019-05-20T07:26:43.707Z,43.67
2019-05-20T07:29:14.960Z,45.70
2019-05-20T07:31:46.139Z,48.47
2019-05-20T07:34:17.925Z,46.70
2019-05-20T07:37:02.667Z,39.40
2019-05-20T07:39:22.198Z,40.03
2019-05-20T07:41:53.352Z,43.80
2019-05-20T07:44:24.611Z,44.57
2019-05-20T07:46:55.792Z,39.97
2019-05-20T07:49:26.971Z,38.43
2019-05-20T07:51:58.248Z,38.17
2019-05-20T07:54:29.485Z,38.90
2019-05-20T07:57:04.323Z,43.93
2019-05-20T07:59:35.523Z,37.00
2019-05-20T08:02:06.672Z,36.50
2019-05-20T08:04:37.884Z,29.90
2019-05-20T08:07:26.586Z,38.93
2019-05-20T08:09:46.001Z,25.60
2019-05-20T08:12:14.894Z,24.73
2019-05-20T08:14:46.116Z,24.60
2019-05-20T08:17:17.371Z,23.33
2019-05-20T08:19:48.556Z,19.40
2019-05-20T08:22:19.723Z,19.87
2019-05-20T08:24:51.970Z,20.37
2019-05-20T08:27:23.142Z,19.37
2019-05-20T08:29:54.405Z,19.50
2019-05-20T08:32:25.739Z,23.17
2019-05-20T08:34:57.000Z,26.00
2019-05-20T08:37:44.252Z,20.13
2019-05-20T08:40:01.100Z,26.20
2019-05-20T08:42:32.354Z,23.03
2019-05-20T08:45:03.886Z,25.80
2019-05-20T08:47:35.289Z,22.57
2019-05-20T08:50:12.312Z,23.63
2019-05-20T08:52:40.486Z,25.43
2019-05-20T08:55:11.719Z,22.23
2019-05-20T08:57:43.034Z,25.83
2019-05-20T09:00:23.694Z,27.90
2019-05-20T09:02:54.690Z,28.70
2019-05-20T09:05:28.163Z,25.53
2019-05-20T09:08:03.795Z,38.13
2019-05-20T09:10:31.629Z,27.27
2019-05-20T09:13:02.917Z,26.23
2019-05-20T09:15:34.156Z,24.77
2019-05-20T09:18:05.394Z,25.50
2019-05-20T09:20:36.533Z,22.65
2019-05-20T09:23:07.777Z,25.82
2019-05-20T09:25:39.011Z,24.02
2019-05-20T09:28:10.271Z,27.07
2019-05-20T09:30:41.645Z,24.27
2019-05-20T09:33:12.967Z,26.97
2019-05-20T09:35:44.391Z,24.40
2019-05-20T09:38:20.825Z,22.10
2019-05-20T09:40:49.363Z,21.50
2019-05-20T09:43:20.565Z,24.77
2019-05-20T09:46:05.634Z,25.27
2019-05-20T09:48:25.338Z,28.32
2019-05-20T09:50:56.847Z,27.70
2019-05-20T09:53:28.165Z,29.43
2019-05-20T09:55:59.304Z,30.48
2019-05-20T09:58:30.490Z,30.40
2019-05-20T10:01:01.691Z,26.17
2019-05-20T10:03:32.935Z,28.67
2019-05-20T10:06:04.110Z,30.72
2019-05-20T10:08:41.003Z,22.80
2019-05-20T10:11:08.144Z,20.37
2019-05-20T10:13:39.432Z,21.62
2019-05-20T10:16:10.591Z,26.10
2019-05-20T10:18:41.787Z,25.43
2019-05-20T10:21:13.069Z,27.97
2019-05-20T10:23:44.277Z,28.27
2019-05-20T10:26:15.435Z,30.10
2019-05-20T10:28:47.669Z,31.40
2019-05-20T10:31:19.005Z,33.10
2019-05-20T10:33:50.224Z,35.17
2019-05-20T10:36:21.407Z,30.67
2019-05-20T10:38:58.782Z,28.97
2019-05-20T10:41:25.487Z,31.40
2019-05-20T10:43:56.747Z,29.10
2019-05-20T10:46:28.984Z,28.47
2019-05-20T10:49:01.398Z,24.00
2019-05-20T10:51:32.673Z,28.13
2019-05-20T10:54:03.847Z,25.70
2019-05-20T10:56:35.065Z,22.23
2019-05-20T10:59:06.364Z,23.20
2019-05-20T11:01:37.517Z,23.73
2019-05-20T11:04:08.705Z,23.30
2019-05-20T11:06:39.920Z,21.77
2019-05-20T11:09:14.073Z,20.73
2019-05-20T11:11:43.946Z,23.13
2019-05-20T11:14:15.211Z,21.87
2019-05-20T11:16:46.377Z,20.67
2019-05-20T11:19:17.572Z,19.93
2019-05-20T11:21:48.736Z,22.63
2019-05-20T11:24:19.943Z,25.77
2019-05-20T11:26:51.135Z,22.33
2019-05-20T11:29:22.329Z,24.27
2019-05-20T11:31:53.531Z,25.10
2019-05-20T11:34:24.815Z,23.83
2019-05-20T11:36:56.204Z,22.00
2019-05-20T11:39:33.448Z,27.03
2019-05-20T11:42:00.519Z,25.97
2019-05-20T11:44:31.741Z,27.87
2019-05-20T11:47:02.902Z,30.93
2019-05-20T11:49:34.123Z,29.23
2019-05-20T11:52:05.300Z,25.53
2019-05-20T11:54:36.529Z,30.03
2019-05-20T11:57:07.704Z,26.47
2019-05-20T11:59:38.902Z,28.20
2019-05-20T12:02:10.158Z,29.13
2019-05-20T12:04:42.028Z,24.23
2019-05-20T12:07:13.184Z,27.83
2019-05-20T12:09:49.793Z,27.87
2019-05-20T12:12:18.223Z,27.40
2019-05-20T12:14:49.449Z,29.23
2019-05-20T12:17:20.668Z,25.87
2019-05-20T12:19:51.853Z,31.10
2019-05-20T12:22:23.021Z,29.60
2019-05-20T12:24:54.206Z,31.87
2019-05-20T12:27:25.376Z,33.70
2019-05-20T12:29:56.700Z,29.77
2019-05-20T12:32:27.988Z,33.57
2019-05-20T12:34:59.458Z,33.80
2019-05-20T12:37:30.641Z,34.20
2019-05-20T12:40:07.244Z,35.00
2019-05-20T12:42:34.768Z,38.13
2019-05-20T12:45:07.234Z,37.70
2019-05-20T12:47:39.417Z,37.87
2019-05-20T12:50:10.705Z,39.30
2019-05-20T12:52:41.897Z,41.73
2019-05-20T12:55:13.805Z,39.63
2019-05-20T12:57:44.980Z,44.23
2019-05-20T13:00:16.599Z,46.57
2019-05-20T13:02:48.124Z,48.97
2019-05-20T13:05:19.513Z,43.67
2019-05-20T13:07:50.787Z,46.23
2019-05-20T13:10:29.680Z,45.50
2019-05-20T13:12:57.002Z,45.97
2019-05-20T13:15:31.131Z,50.07
2019-05-20T13:18:02.505Z,46.10
2019-05-20T13:20:33.723Z,47.47
2019-05-20T13:23:07.789Z,50.67
2019-05-20T13:25:38.087Z,51.40
2019-05-20T13:28:09.269Z,45.83
2019-05-20T13:30:41.758Z,54.13
2019-05-20T13:33:14.906Z,47.83
2019-05-20T13:35:46.192Z,47.97
2019-05-20T13:38:17.390Z,45.27
2019-05-20T13:40:48.666Z,44.87
2019-05-20T13:43:19.990Z,45.17
2019-05-20T13:45:51.472Z,44.87
2019-05-20T13:48:22.929Z,45.70
2019-05-20T13:50:54.366Z,46.40
2019-05-20T13:53:25.910Z,45.37
2019-05-20T13:55:57.176Z,40.60
2019-05-20T13:58:28.438Z,42.77
2019-05-20T14:00:59.826Z,37.05
2019-05-20T14:03:34.267Z,41.35
2019-05-20T14:06:05.557Z,38.05
2019-05-20T14:08:37.159Z,40.05
2019-05-20T14:11:08.504Z,42.13
2019-05-20T14:13:40.347Z,41.98
2019-05-20T14:16:11.621Z,37.00
2019-05-20T14:18:42.909Z,43.40
2019-05-20T14:21:15.565Z,41.30
2019-05-20T14:23:47.340Z,42.70
2019-05-20T14:26:18.699Z,39.70
2019-05-20T14:28:49.964Z,43.20
2019-05-20T14:31:21.224Z,47.27
2019-05-20T14:33:53.275Z,45.80
2019-05-20T14:36:38.553Z,49.70
2019-05-20T14:38:57.924Z,49.30
2019-05-20T14:41:29.193Z,43.90
2019-05-20T14:44:00.569Z,47.30
2019-05-20T14:46:32.123Z,49.47
2019-05-20T14:49:03.503Z,44.77
2019-05-20T14:51:34.712Z,52.53
2019-05-20T14:54:05.978Z,45.37
2019-05-20T14:56:37.537Z,52.17
2019-05-20T14:59:08.755Z,48.53
2019-05-20T15:01:40.121Z,50.43
2019-05-20T15:04:12.658Z,55.40
2019-05-20T15:06:43.955Z,51.03
2019-05-20T15:09:15.165Z,47.07
2019-05-20T15:11:46.414Z,49.37
2019-05-20T15:14:18.757Z,52.17
2019-05-20T15:16:50.086Z,42.77
2019-05-20T15:19:21.304Z,55.13
2019-05-20T15:21:52.669Z,70.17
2019-05-20T15:24:23.931Z,62.97
2019-05-20T15:26:55.429Z,64.90
2019-05-20T15:29:28.454Z,58.33
2019-05-20T15:31:59.837Z,56.20
2019-05-20T15:34:31.011Z,57.40
2019-05-20T15:37:02.288Z,50.73
2019-05-20T15:39:33.470Z,53.90
2019-05-20T15:42:04.941Z,48.43
2019-05-20T15:44:36.353Z,55.47
2019-05-20T15:47:07.547Z,51.47
2019-05-20T15:49:39.016Z,51.20
2019-05-20T15:52:10.652Z,45.90
2019-05-20T15:54:43.626Z,51.73
2019-05-20T15:57:14.868Z,53.27
2019-05-20T15:59:46.822Z,45.10
2019-05-20T16:02:18.133Z,247.17
2019-05-20T16:04:49.761Z,59.43
2019-05-20T16:07:22.149Z,55.37
2019-05-20T16:09:54.541Z,61.43
2019-05-20T16:12:25.854Z,58.83
2019-05-20T16:14:58.044Z,55.17
2019-05-20T16:17:29.373Z,57.37
2019-05-20T16:20:00.616Z,63.27
2019-05-20T16:22:32.106Z,57.53
2019-05-20T16:25:03.439Z,57.77
2019-05-20T16:27:34.762Z,52.83
2019-05-20T16:30:07.625Z,58.93
2019-05-20T16:32:39.226Z,56.93
2019-05-20T16:35:10.512Z,57.03
2019-05-20T16:37:41.978Z,54.87
2019-05-20T16:40:14.416Z,53.53
2019-05-20T16:42:45.772Z,61.40
2019-05-20T16:45:18.103Z,62.83
2019-05-20T16:47:49.325Z,55.83
2019-05-20T16:50:20.582Z,57.53
2019-05-20T16:52:51.953Z,55.43
2019-05-20T16:55:23.277Z,59.13
2019-05-20T16:57:54.678Z,58.33
2019-05-20T17:00:31.913Z,61.33
2019-05-20T17:02:59.361Z,61.13
2019-05-20T17:05:30.716Z,60.27
2019-05-20T17:08:02.054Z,62.03
2019-05-20T17:10:33.435Z,54.07
2019-05-20T17:13:04.927Z,56.73
2019-05-20T17:15:36.199Z,64.47
2019-05-20T17:18:07.516Z,59.73
2019-05-20T17:20:38.767Z,57.47
2019-05-20T17:23:09.967Z,57.63
2019-05-20T17:25:41.130Z,61.83
2019-05-20T17:28:12.456Z,60.97
2019-05-20T17:30:45.854Z,57.53
2019-05-20T17:33:18.307Z,58.33
2019-05-20T17:35:49.919Z,59.50
2019-05-20T17:38:21.265Z,57.87
2019-05-20T17:40:52.605Z,60.57
2019-05-20T17:43:23.900Z,62.03
2019-05-20T17:45:55.210Z,61.00
2019-05-20T17:48:26.471Z,56.00
2019-05-20T17:50:57.919Z,54.87
2019-05-20T17:53:29.239Z,53.67
2019-05-20T17:56:00.429Z,52.43
2019-05-20T17:58:31.617Z,51.90
2019-05-20T18:01:15.038Z,57.63
2019-05-20T18:03:35.843Z,55.07
2019-05-20T18:06:07.027Z,49.67
2019-05-20T18:08:40.989Z,53.27
2019-05-20T18:11:12.228Z,51.97
2019-05-20T18:13:43.858Z,48.10
2019-05-20T18:16:15.864Z,56.97
2019-05-20T18:18:48.143Z,56.63
2019-05-20T18:21:19.602Z,56.53
2019-05-20T18:23:51.363Z,53.30
2019-05-20T18:26:22.574Z,55.60
2019-05-20T18:28:53.846Z,52.43
2019-05-20T18:31:32.591Z,59.00
2019-05-20T18:33:59.451Z,56.43
2019-05-20T18:36:30.796Z,58.80
2019-05-20T18:39:23.203Z,56.93
2019-05-20T18:41:55.673Z,58.40
2019-05-20T18:44:27.466Z,57.63
2019-05-20T18:47:02.118Z,59.47
2019-05-20T18:49:34.464Z,56.37
2019-05-20T18:52:09.634Z,52.43
2019-05-20T18:54:40.988Z,55.70
2019-05-20T18:57:12.458Z,57.27
2019-05-20T18:59:43.788Z,56.47
2019-05-20T19:02:15.135Z,60.23
2019-05-20T19:04:46.508Z,58.93
2019-05-20T19:07:18.020Z,60.43
2019-05-20T19:09:49.911Z,49.77
2019-05-20T19:12:21.143Z,50.23
2019-05-20T19:14:52.489Z,51.40
2019-05-20T19:17:23.723Z,47.00
2019-05-20T19:19:55.195Z,49.93
2019-05-20T19:22:26.374Z,46.23
2019-05-20T19:24:57.622Z,42.40
2019-05-20T19:27:30.100Z,44.00
2019-05-20T19:30:02.640Z,42.03
2019-05-20T19:32:33.890Z,41.73
2019-05-20T19:35:05.225Z,42.47
2019-05-20T19:37:40.719Z,41.47
2019-05-20T19:40:12.872Z,40.67
2019-05-20T19:43:04.116Z,45.77
2019-05-20T19:45:36.772Z,41.70
2019-05-20T19:48:14.950Z,43.97
2019-05-20T19:50:46.930Z,46.23
2019-05-20T19:53:19.397Z,43.27
2019-05-20T19:55:51.238Z,50.73
2019-05-20T19:58:25.663Z,53.73
2019-05-20T20:00:56.986Z,50.53
2019-05-20T20:03:28.955Z,47.87
2019-05-20T20:06:00.126Z,51.33
2019-05-20T20:08:31.406Z,43.03
2019-05-20T20:11:21.833Z,53.43
2019-05-20T20:13:53.026Z,43.03
2019-05-20T20:16:26.825Z,52.47
2019-05-20T20:18:57.980Z,48.23
2019-05-20T20:21:29.492Z,49.27
2019-05-20T20:24:01.313Z,59.87
2019-05-20T20:26:32.637Z,56.33
2019-05-20T20:29:04.022Z,62.73
2019-05-20T20:31:35.319Z,54.40
2019-05-20T20:34:08.269Z,55.23
2019-05-20T20:36:39.714Z,53.40
2019-05-20T20:39:11.401Z,59.33
2019-05-20T20:41:43.068Z,57.83
2019-05-20T20:44:14.263Z,66.90
2019-05-20T20:46:45.477Z,59.37
2019-05-20T20:49:16.694Z,61.30
2019-05-20T20:51:48.119Z,62.33
2019-05-20T20:54:19.290Z,65.30
2019-05-20T20:56:50.497Z,62.40
2019-05-20T20:59:21.698Z,64.47
2019-05-20T21:01:56.732Z,62.20
2019-05-20T21:04:25.767Z,67.87
2019-05-20T21:06:56.965Z,66.07
2019-05-20T21:09:28.189Z,63.47
2019-05-20T21:11:59.434Z,61.63
2019-05-20T21:14:30.605Z,60.90
2019-05-20T21:17:01.888Z,64.33
2019-05-20T21:19:33.083Z,62.83
2019-05-20T21:22:04.331Z,58.87
2019-05-20T21:24:35.546Z,61.30
2019-05-20T21:27:06.854Z,66.57
2019-05-20T21:29:38.077Z,59.53
2019-05-20T21:32:09.345Z,66.10
2019-05-20T21:34:40.680Z,64.77
2019-05-20T21:37:11.962Z,63.93
2019-05-20T21:39:43.120Z,64.87
2019-05-20T21:42:14.382Z,61.90
2019-05-20T21:44:45.567Z,65.07
2019-05-20T21:47:16.994Z,65.50
2019-05-20T21:49:49.243Z,64.90
2019-05-20T21:52:21.458Z,62.20
2019-05-20T21:54:52.776Z,60.73
2019-05-20T21:57:24.160Z,64.07
2019-05-20T21:59:55.318Z,61.33
2019-05-20T22:02:26.841Z,61.07
2019-05-20T22:04:58.122Z,68.07
2019-05-20T22:07:29.330Z,68.60
2019-05-20T22:10:00.606Z,64.63
2019-05-20T22:12:31.863Z,61.97
2019-05-20T22:15:03.030Z,55.03
2019-05-20T22:17:34.759Z,63.33
2019-05-20T22:20:05.962Z,61.00
2019-05-20T22:22:45.779Z,64.90
2019-05-20T22:25:16.922Z,61.17
2019-05-20T22:27:48.181Z,63.97
2019-05-20T22:30:19.713Z,64.03
2019-05-20T22:32:51.130Z,62.33
2019-05-20T22:35:22.336Z,68.97
2019-05-20T22:37:53.617Z,60.80
2019-05-20T22:40:25.000Z,61.00
2019-05-20T22:42:56.340Z,56.47
2019-05-20T22:45:27.570Z,60.83
2019-05-20T22:47:58.830Z,60.10
2019-05-20T22:50:30.360Z,63.03
2019-05-20T22:53:01.632Z,56.53
2019-05-20T22:55:33.008Z,62.80
2019-05-20T22:58:04.359Z,58.57
2019-05-20T23:00:35.719Z,61.13
2019-05-20T23:03:07.024Z,59.47
2019-05-20T23:05:38.371Z,59.87
2019-05-20T23:08:13.701Z,58.73
2019-05-20T23:10:45.030Z,59.20
2019-05-20T23:13:16.397Z,54.13
2019-05-20T23:15:47.678Z,57.17
2019-05-20T23:18:19.497Z,59.83
2019-05-20T23:20:51.795Z,51.30
2019-05-20T23:23:23.328Z,55.93
2019-05-20T23:25:54.530Z,54.20
2019-05-20T23:28:25.750Z,56.00
2019-05-20T23:30:57.040Z,57.27
2019-05-20T23:33:28.243Z,56.93
2019-05-20T23:35:59.525Z,55.53
2019-05-20T23:38:30.891Z,52.27
2019-05-20T23:41:02.452Z,54.73
2019-05-20T23:43:33.852Z,53.40
2019-05-20T23:46:05.186Z,52.83
2019-05-20T23:48:36.566Z,55.70
2019-05-20T23:51:07.701Z,49.10
2019-05-20T23:53:38.853Z,55.93
2019-05-20T23:56:10.104Z,52.87
2019-05-20T23:58:41.328Z,53.10
